Smiley, Texas
Current Conditions -  °F | °C
As of 4:15 AM on Sunday 26 Oct 2014 (Local Time) from KT20 Reporting Station
Thunderstorm Thunderstorm  
Wind Chill: 63°   Ceiling: Unl
Heat Index: 63°   Visibility: 7mi
Dew Point: 61°   Wind: 3mph
Humidity: 96%   Direction: 160°SSE
Pressure: 30.05"   Gusts: NA
Location:  29.27°N, 97.64°W
Report Text: KT20 260915Z AUTO 16003KT 7SM VCTS CLR 17/16 A3005 RMK AO2 T01700163
Loading
Personal Weather Stations






























Interactive Weather Map
Tropical Storm Tracking
New forecast layout! Learn more

10-Day Weather Forecast

Advertisements
Track Severe Weather on mobile